Oregon State Flying Club

The Oregon State Flying Club is a non-profit organization committed to providing safe and inexpensive flying to the Oregon State University and Linn-Benton Community College communities. The Club currently owns three aircraft based at the Corvallis Airport for training, travel, and recreational purposes. Founded in 1952 and incorporated in 1956 the OSFC is one of the oldest continuously active flying clubs in the United States.

News & Announcements

Monthly Board Meeting

Next Meeting: Wednesday, December 17, 6pm location TBD

Current METAR KCVO

Raw METAR:  KCVO 221335Z AUTO 19005KT 10SM BKN060 BKN075 BKN120 09/07 A2980 RMK AO1

This is a report for Corvallis Municipal Automatic Weather Observing / Reporting System, United States. The report was made 16 minutes ago, at 13:35 UTC. The wind was blowing at a speed of 5.8 miles per hour (2.6 meters per second) from south (190°). The temperature was 48 °F (9 °C), with a dew-point at 45 °F (7 °C). The atmospheric pressure was 29.80 inHg (1009 hPa). The relative humidity was 87.3%. There were broken clouds at a height of 6000 feet (1829 meters), broken clouds at a height of 7500 feet (2286 meters), and broken clouds at a height of 12000 feet (3658 meters). The overall visibility was 10.0 miles (16.1 kilometers).